createdAt,value
2018-12-05T00:02:03.184Z,8.60
2018-12-05T00:04:30.800Z,6.10
2018-12-05T00:06:58.389Z,6.00
2018-12-05T00:09:26.056Z,5.63
2018-12-05T00:11:53.609Z,5.77
2018-12-05T00:14:21.190Z,5.73
2018-12-05T00:16:48.814Z,6.17
2018-12-05T00:19:16.398Z,8.70
2018-12-05T00:21:43.985Z,9.25
2018-12-05T00:24:11.601Z,6.47
2018-12-05T00:26:39.179Z,6.40
2018-12-05T00:29:07.070Z,5.50
2018-12-05T00:31:34.655Z,5.97
2018-12-05T00:34:02.245Z,5.73
2018-12-05T00:36:29.848Z,5.20
2018-12-05T00:38:57.427Z,5.70
2018-12-05T00:41:25.082Z,5.13
2018-12-05T00:43:52.663Z,5.03
2018-12-05T00:46:20.277Z,7.20
2018-12-05T00:48:47.851Z,6.20
2018-12-05T00:51:15.430Z,5.97
2018-12-05T00:53:43.397Z,5.53
2018-12-05T00:56:10.976Z,5.00
2018-12-05T00:58:39.315Z,5.60
2018-12-05T01:01:06.916Z,6.10
2018-12-05T01:03:34.497Z,4.87
2018-12-05T01:06:02.865Z,4.90
2018-12-05T01:08:30.463Z,6.03
2018-12-05T01:10:59.304Z,5.80
2018-12-05T01:13:26.886Z,6.10
2018-12-05T01:15:55.225Z,6.00
2018-12-05T01:18:22.833Z,5.77
2018-12-05T01:20:50.419Z,6.33
2018-12-05T01:23:18.075Z,6.10
2018-12-05T01:25:45.692Z,7.60
2018-12-05T01:28:13.242Z,8.40
2018-12-05T01:33:20.077Z,11.02
2018-12-05T01:35:47.637Z,8.53
2018-12-05T01:38:16.597Z,10.27
2018-12-05T01:40:44.178Z,7.60
2018-12-05T01:43:12.522Z,6.97
2018-12-05T01:45:40.161Z,7.37
2018-12-05T01:48:07.781Z,6.03
2018-12-05T01:50:35.330Z,5.57
2018-12-05T01:53:02.956Z,8.20
2018-12-05T01:55:30.538Z,6.60
2018-12-05T01:57:58.570Z,6.00
2018-12-05T02:00:26.107Z,5.40
2018-12-05T02:02:54.452Z,4.57
2018-12-05T02:05:22.520Z,4.57
2018-12-05T02:07:50.102Z,6.27
2018-12-05T02:10:17.683Z,5.70
2018-12-05T02:12:46.813Z,6.30
2018-12-05T02:15:14.398Z,5.93
2018-12-05T02:17:42.008Z,5.60
2018-12-05T02:20:10.564Z,4.93
2018-12-05T02:22:38.159Z,5.43
2018-12-05T02:25:06.500Z,7.43
2018-12-05T02:27:34.103Z,5.73
2018-12-05T02:30:01.694Z,7.60
2018-12-05T02:32:29.344Z,6.17
2018-12-05T02:34:56.929Z,5.30
2018-12-05T02:37:24.510Z,6.13
2018-12-05T02:39:52.112Z,6.53
2018-12-05T02:42:19.694Z,5.67
2018-12-05T02:44:47.774Z,5.80
2018-12-05T02:47:15.361Z,5.73
2018-12-05T02:49:42.942Z,5.63
2018-12-05T02:52:10.555Z,5.87
2018-12-05T02:54:38.440Z,5.47
2018-12-05T02:57:06.587Z,5.87
2018-12-05T02:59:34.168Z,4.93
2018-12-05T03:02:01.757Z,5.20
2018-12-05T03:04:30.089Z,5.20
2018-12-05T03:06:57.700Z,4.80
2018-12-05T03:09:25.244Z,5.33
2018-12-05T03:11:53.239Z,5.17
2018-12-05T03:14:20.815Z,4.83
2018-12-05T03:16:49.172Z,7.87
2018-12-05T03:19:16.828Z,6.37
2018-12-05T03:21:44.408Z,5.23
2018-12-05T03:24:11.997Z,8.03
2018-12-05T03:26:39.628Z,6.33
2018-12-05T03:29:07.777Z,6.00
2018-12-05T03:31:35.382Z,5.63
2018-12-05T03:34:03.027Z,5.63
2018-12-05T03:36:30.569Z,6.20
2018-12-05T03:38:58.196Z,5.17
2018-12-05T03:41:25.776Z,6.00
2018-12-05T03:43:53.358Z,5.33
2018-12-05T03:46:20.965Z,5.53
2018-12-05T03:48:48.538Z,5.57
2018-12-05T03:51:16.180Z,5.17
2018-12-05T03:53:43.753Z,5.43
2018-12-05T03:56:11.334Z,5.13
2018-12-05T03:58:38.962Z,5.33
2018-12-05T04:01:07.302Z,5.30
2018-12-05T04:03:34.878Z,5.33
2018-12-05T04:06:02.485Z,5.67
2018-12-05T04:08:30.069Z,5.30
2018-12-05T04:10:59.724Z,5.23
2018-12-05T04:13:27.310Z,5.17
2018-12-05T04:15:55.647Z,5.33
2018-12-05T04:18:23.832Z,5.33
2018-12-05T04:20:51.433Z,5.20
2018-12-05T04:23:19.004Z,4.83
2018-12-05T04:25:46.607Z,5.10
2018-12-05T04:28:14.192Z,6.40
2018-12-05T04:30:41.831Z,5.40
2018-12-05T04:33:09.414Z,5.20
2018-12-05T04:35:36.999Z,5.97
2018-12-05T04:38:05.832Z,5.60
2018-12-05T04:40:33.411Z,5.27
2018-12-05T04:43:00.995Z,4.90
2018-12-05T04:45:29.431Z,5.40
2018-12-05T04:47:57.015Z,5.43
2018-12-05T04:50:24.869Z,5.50
2018-12-05T04:52:52.496Z,5.83
2018-12-05T04:55:20.095Z,5.67
2018-12-05T04:57:49.331Z,5.83
2018-12-05T05:00:17.363Z,5.87
2018-12-05T05:02:44.942Z,6.20
2018-12-05T05:05:12.928Z,5.90
2018-12-05T05:07:40.508Z,6.00
2018-12-05T05:10:08.098Z,6.20
2018-12-05T05:12:35.965Z,5.80
2018-12-05T05:15:03.547Z,5.77
2018-12-05T05:17:31.137Z,5.97
2018-12-05T05:19:58.783Z,5.27
2018-12-05T05:22:26.360Z,8.23
2018-12-05T05:24:53.932Z,5.73
2018-12-05T05:27:22.722Z,6.30
2018-12-05T05:29:50.302Z,5.70
2018-12-05T05:32:18.648Z,5.43
2018-12-05T05:34:47.671Z,5.70
2018-12-05T05:37:16.049Z,5.43
2018-12-05T05:39:43.611Z,5.23
2018-12-05T05:42:13.210Z,5.70
2018-12-05T05:44:40.790Z,5.53
2018-12-05T05:47:09.136Z,5.53
2018-12-05T05:49:36.761Z,5.03
2018-12-05T05:52:04.345Z,6.07
2018-12-05T05:54:31.924Z,5.73
2018-12-05T05:56:59.585Z,5.37
2018-12-05T05:59:27.173Z,5.40
2018-12-05T06:01:55.525Z,8.03
2018-12-05T06:04:23.149Z,6.23
2018-12-05T06:06:50.738Z,5.43
2018-12-05T06:09:18.324Z,5.30
2018-12-05T06:11:46.141Z,8.23
2018-12-05T06:14:13.736Z,5.73
2018-12-05T06:16:41.320Z,6.17
2018-12-05T06:19:08.956Z,8.37
2018-12-05T06:21:36.536Z,6.93
2018-12-05T06:24:04.165Z,6.23
2018-12-05T06:26:31.738Z,5.80
2018-12-05T06:29:00.341Z,5.80
2018-12-05T06:31:27.929Z,5.53
2018-12-05T06:33:55.515Z,7.90
2018-12-05T06:36:23.125Z,6.80
2018-12-05T06:38:50.710Z,5.43
2018-12-05T06:41:19.177Z,8.20
2018-12-05T06:43:46.734Z,6.47
2018-12-05T06:46:14.324Z,6.40
2018-12-05T06:48:41.992Z,8.67
2018-12-05T06:51:09.575Z,6.17
2018-12-05T06:53:37.162Z,6.17
2018-12-05T06:56:04.812Z,5.80
2018-12-05T06:58:32.394Z,5.93
2018-12-05T07:00:59.992Z,5.53
2018-12-05T07:03:27.654Z,6.00
2018-12-05T07:05:56.004Z,5.23
2018-12-05T07:08:23.574Z,5.70
2018-12-05T07:10:51.239Z,6.00
2018-12-05T07:13:18.833Z,5.63
2018-12-05T07:15:47.168Z,6.40
2018-12-05T07:18:15.635Z,5.60
2018-12-05T07:20:43.218Z,6.23
2018-12-05T07:23:10.792Z,5.80
2018-12-05T07:25:39.223Z,5.37
2018-12-05T07:28:06.797Z,5.57
2018-12-05T07:30:34.374Z,5.67
2018-12-05T07:33:01.977Z,6.43
2018-12-05T07:35:29.569Z,8.50
2018-12-05T07:37:57.155Z,9.17
2018-12-05T07:40:24.785Z,8.70
2018-12-05T07:42:52.369Z,9.17
2018-12-05T07:45:19.946Z,6.00
2018-12-05T07:47:48.336Z,6.10
2018-12-05T07:50:16.021Z,13.02
2018-12-05T07:52:44.276Z,6.47
2018-12-05T07:55:11.905Z,6.70
2018-12-05T07:57:39.487Z,6.17
2018-12-05T08:00:07.076Z,6.60
2018-12-05T08:02:34.699Z,5.53
2018-12-05T08:05:02.281Z,6.47
2018-12-05T08:07:29.862Z,6.17
2018-12-05T08:09:58.645Z,6.67
2018-12-05T08:12:26.256Z,6.50
2018-12-05T08:14:53.850Z,6.17
2018-12-05T08:17:21.530Z,7.97
2018-12-05T08:19:49.114Z,7.23
2018-12-05T08:22:16.703Z,6.67
2018-12-05T08:24:44.330Z,6.93
2018-12-05T08:27:12.706Z,6.20
2018-12-05T08:29:41.050Z,6.87
2018-12-05T08:32:08.681Z,7.70
2018-12-05T08:34:36.268Z,6.90
2018-12-05T08:37:03.893Z,6.67
2018-12-05T08:39:31.512Z,7.83
2018-12-05T08:41:59.108Z,8.07
2018-12-05T08:44:27.454Z,7.60
2018-12-05T08:46:55.955Z,7.27
2018-12-05T08:49:23.568Z,7.90
2018-12-05T08:51:51.140Z,9.60
2018-12-05T08:54:21.271Z,8.10
2018-12-05T08:56:46.393Z,7.40
2018-12-05T08:59:13.978Z,8.50
2018-12-05T09:01:42.378Z,9.73
2018-12-05T09:04:09.957Z,8.27
2018-12-05T09:06:37.543Z,7.77
2018-12-05T09:09:05.200Z,8.20
2018-12-05T09:11:32.779Z,7.57
2018-12-05T09:14:00.930Z,8.70
2018-12-05T09:16:28.573Z,9.53
2018-12-05T09:18:56.163Z,9.73
2018-12-05T09:21:23.739Z,9.43
2018-12-05T09:23:51.408Z,9.97
2018-12-05T09:26:18.989Z,11.17
2018-12-05T09:28:46.574Z,10.73
2018-12-05T09:31:14.183Z,11.33
2018-12-05T09:33:41.767Z,10.40
2018-12-05T09:36:09.399Z,10.97
2018-12-05T09:38:36.983Z,10.93
2018-12-05T09:41:04.568Z,10.77
2018-12-05T09:43:32.966Z,10.50
2018-12-05T09:46:00.549Z,11.60
2018-12-05T09:48:28.130Z,11.20
2018-12-05T09:50:55.771Z,11.30
2018-12-05T09:53:23.359Z,10.83
2018-12-05T09:55:50.947Z,13.53
2018-12-05T09:58:19.321Z,17.73
2018-12-05T10:00:46.904Z,12.80
2018-12-05T10:03:14.543Z,13.13
2018-12-05T10:05:42.142Z,12.90
2018-12-05T10:08:09.733Z,13.70
2018-12-05T10:10:37.372Z,13.27
2018-12-05T10:13:04.951Z,14.60
2018-12-05T10:15:32.546Z,13.30
2018-12-05T10:18:00.171Z,13.73
2018-12-05T10:20:27.785Z,14.47
2018-12-05T10:22:56.176Z,14.47
2018-12-05T10:25:24.528Z,13.57
2018-12-05T10:27:52.119Z,14.10
2018-12-05T10:30:19.740Z,20.37
2018-12-05T10:32:47.322Z,15.73
2018-12-05T10:35:14.988Z,15.53
2018-12-05T10:37:42.574Z,15.50
2018-12-05T10:40:10.164Z,14.63
2018-12-05T10:42:37.800Z,13.73
2018-12-05T10:45:05.396Z,14.83
2018-12-05T10:47:32.987Z,13.93
2018-12-05T10:50:00.612Z,19.73
2018-12-05T10:52:28.595Z,19.50
2018-12-05T10:54:56.189Z,17.60
2018-12-05T10:57:23.776Z,15.23
2018-12-05T10:59:53.125Z,15.40
2018-12-05T11:02:39.041Z,14.00
2018-12-05T11:05:24.618Z,19.83
2018-12-05T11:08:10.054Z,15.07
2018-12-05T11:10:55.884Z,18.10
2018-12-05T11:13:41.788Z,15.33
2018-12-05T11:16:09.450Z,15.63
2018-12-05T11:18:55.337Z,19.23
2018-12-05T11:21:49.376Z,15.07
2018-12-05T11:24:09.643Z,14.53
2018-12-05T11:26:37.232Z,14.77
2018-12-05T11:29:04.860Z,14.57
2018-12-05T11:31:33.222Z,14.87
2018-12-05T11:34:00.799Z,14.20
2018-12-05T11:36:28.750Z,14.37
2018-12-05T11:38:56.344Z,15.77
2018-12-05T11:41:23.929Z,18.53
2018-12-05T11:43:51.566Z,15.83
2018-12-05T11:46:19.155Z,14.33
2018-12-05T11:48:46.739Z,15.10
2018-12-05T11:51:14.352Z,15.00
2018-12-05T11:53:41.934Z,14.73
2018-12-05T11:56:09.566Z,15.50
2018-12-05T11:58:37.919Z,18.33
2018-12-05T12:01:05.511Z,18.80
2018-12-05T12:03:33.921Z,19.95
2018-12-05T12:06:01.536Z,15.73
2018-12-05T12:08:29.573Z,14.63
2018-12-05T12:10:57.197Z,13.30
2018-12-05T12:13:24.783Z,14.33
2018-12-05T12:15:52.368Z,15.10
2018-12-05T12:18:20.970Z,15.00
2018-12-05T12:20:48.565Z,15.07
2018-12-05T12:23:16.154Z,18.60
2018-12-05T12:25:43.779Z,14.77
2018-12-05T12:28:11.368Z,12.80
2018-12-05T12:30:38.958Z,14.93
2018-12-05T12:33:06.850Z,13.03
2018-12-05T12:35:34.447Z,12.70
2018-12-05T12:38:02.042Z,12.53
2018-12-05T12:40:29.652Z,12.40
2018-12-05T12:42:58.006Z,12.87
2018-12-05T12:45:25.987Z,12.23
2018-12-05T12:47:53.567Z,13.13
2018-12-05T12:50:22.420Z,15.23
2018-12-05T12:52:50.040Z,12.90
2018-12-05T12:55:17.625Z,13.37
2018-12-05T12:57:45.206Z,12.87
2018-12-05T13:00:12.847Z,16.20
2018-12-05T13:02:40.436Z,13.07
2018-12-05T13:05:08.016Z,13.33
2018-12-05T13:07:35.659Z,13.17
2018-12-05T13:10:03.244Z,16.60
2018-12-05T13:12:31.898Z,16.45
2018-12-05T13:14:59.513Z,13.47
2018-12-05T13:17:27.865Z,12.77
2018-12-05T13:19:55.499Z,12.17
2018-12-05T13:22:23.367Z,12.27
2018-12-05T13:24:50.958Z,11.80
2018-12-05T13:27:19.103Z,11.97
2018-12-05T13:29:46.690Z,16.27
2018-12-05T13:32:14.274Z,12.70
2018-12-05T13:34:41.906Z,16.00
2018-12-05T13:37:09.497Z,12.53
2018-12-05T13:39:37.852Z,11.27
2018-12-05T13:42:05.524Z,12.50
2018-12-05T13:44:33.110Z,11.67
2018-12-05T13:47:01.454Z,11.63
2018-12-05T13:49:29.088Z,11.43
2018-12-05T13:51:56.675Z,11.60
2018-12-05T13:54:24.258Z,11.30
2018-12-05T13:56:51.896Z,11.93
2018-12-05T13:59:19.492Z,14.57
2018-12-05T14:01:47.073Z,17.47
2018-12-05T14:04:14.741Z,13.03
2018-12-05T14:06:42.326Z,13.07
2018-12-05T14:09:09.906Z,13.20
2018-12-05T14:11:37.545Z,16.42
2018-12-05T14:14:05.157Z,12.97
2018-12-05T14:16:32.724Z,12.93
2018-12-05T14:19:01.192Z,13.57
2018-12-05T14:21:29.465Z,13.50
2018-12-05T14:23:57.649Z,14.53
2018-12-05T14:26:25.243Z,14.03
2018-12-05T14:28:52.835Z,14.17
2018-12-05T14:31:20.471Z,15.53
2018-12-05T14:33:48.077Z,15.57
2018-12-05T14:36:15.672Z,13.07
2018-12-05T14:38:43.300Z,13.67
2018-12-05T14:41:10.885Z,14.83
2018-12-05T14:43:38.465Z,13.00
2018-12-05T14:46:07.403Z,13.93
2018-12-05T14:48:33.711Z,13.27
2018-12-05T14:51:02.045Z,13.13
2018-12-05T14:53:30.630Z,13.63
2018-12-05T14:55:58.215Z,13.63
2018-12-05T14:58:25.796Z,14.20
2018-12-05T15:00:53.427Z,13.67
2018-12-05T15:03:21.019Z,14.13
2018-12-05T15:05:48.618Z,13.07
2018-12-05T15:08:16.240Z,14.47
2018-12-05T15:10:44.687Z,14.37
2018-12-05T15:13:12.272Z,13.43
2018-12-05T15:15:39.856Z,15.67
2018-12-05T15:18:07.514Z,13.40
2018-12-05T15:20:35.104Z,14.63
2018-12-05T15:23:02.687Z,14.07
2018-12-05T15:25:30.354Z,14.00
2018-12-05T15:27:57.968Z,13.40
2018-12-05T15:30:26.293Z,13.37
2018-12-05T15:32:53.969Z,13.60
2018-12-05T15:35:21.551Z,13.07
2018-12-05T15:37:49.151Z,12.90
2018-12-05T15:40:16.778Z,13.10
2018-12-05T15:42:44.362Z,13.50
2018-12-05T15:45:11.965Z,13.37
2018-12-05T15:47:39.610Z,15.13
2018-12-05T15:50:07.205Z,13.97
2018-12-05T15:52:35.560Z,18.30
2018-12-05T15:55:04.271Z,15.03
2018-12-05T15:57:31.971Z,14.17
2018-12-05T15:59:59.578Z,15.40
2018-12-05T16:02:27.561Z,15.30
2018-12-05T16:04:55.157Z,14.70
2018-12-05T16:07:22.747Z,19.40
2018-12-05T16:09:50.374Z,15.97
2018-12-05T16:12:18.734Z,16.10
2018-12-05T16:14:46.320Z,15.97
2018-12-05T16:17:13.937Z,15.23
2018-12-05T16:19:41.524Z,14.50
2018-12-05T16:22:10.411Z,14.83
2018-12-05T16:24:37.987Z,14.73
2018-12-05T16:27:06.340Z,15.10
2018-12-05T16:29:33.970Z,20.02
2018-12-05T16:32:01.554Z,15.70
2018-12-05T16:34:29.139Z,15.53
2018-12-05T16:36:57.033Z,15.57
2018-12-05T16:39:24.624Z,19.80
2018-12-05T16:41:52.311Z,15.77
2018-12-05T16:44:20.609Z,15.50
2018-12-05T16:46:48.224Z,15.43
2018-12-05T16:49:15.816Z,19.80
2018-12-05T16:51:43.432Z,16.57
2018-12-05T16:54:11.014Z,21.13
2018-12-05T16:56:38.645Z,18.67
2018-12-05T16:59:06.996Z,18.37
2018-12-05T17:01:34.578Z,17.33
2018-12-05T17:04:02.986Z,15.37
2018-12-05T17:06:30.597Z,16.67
2018-12-05T17:08:58.183Z,16.10
2018-12-05T17:11:26.604Z,15.63
2018-12-05T17:13:54.197Z,15.67
2018-12-05T17:16:21.792Z,14.67
2018-12-05T17:18:50.205Z,14.43
2018-12-05T17:21:17.796Z,17.73
2018-12-05T17:23:45.383Z,15.53
2018-12-05T17:26:13.827Z,13.77
2018-12-05T17:28:41.414Z,13.60
2018-12-05T17:31:09.002Z,13.10
2018-12-05T17:33:36.629Z,13.37
2018-12-05T17:36:04.213Z,12.53
2018-12-05T17:38:32.567Z,13.87
2018-12-05T17:41:00.216Z,13.90
2018-12-05T17:43:28.392Z,17.50
2018-12-05T17:45:56.671Z,13.73
2018-12-05T17:48:24.315Z,13.77
2018-12-05T17:50:51.899Z,14.00
2018-12-05T17:53:19.507Z,13.40
2018-12-05T17:55:47.142Z,13.70
2018-12-05T17:58:14.730Z,13.00
2018-12-05T18:00:43.083Z,13.43
2018-12-05T18:03:11.164Z,14.33
2018-12-05T18:05:38.751Z,13.97
2018-12-05T18:08:07.108Z,14.70
2018-12-05T18:10:34.744Z,16.13
2018-12-05T18:13:02.359Z,13.73
2018-12-05T18:15:29.947Z,15.53
2018-12-05T18:17:57.580Z,15.20
2018-12-05T18:20:25.954Z,13.33
2018-12-05T18:22:53.535Z,13.83
2018-12-05T18:25:21.983Z,14.10
2018-12-05T18:27:49.592Z,14.50
2018-12-05T18:30:17.190Z,14.27
2018-12-05T18:32:45.585Z,14.07
2018-12-05T18:35:13.176Z,18.58
2018-12-05T18:37:40.767Z,14.60
2018-12-05T18:40:08.387Z,13.87
2018-12-05T18:42:36.739Z,13.77
2018-12-05T18:45:04.686Z,14.53
2018-12-05T18:47:32.284Z,18.60
2018-12-05T18:49:59.873Z,15.43
2018-12-05T18:52:27.502Z,15.70
2018-12-05T18:54:55.109Z,14.70
2018-12-05T18:57:22.687Z,18.30
2018-12-05T18:59:50.317Z,15.10
2018-12-05T19:02:17.926Z,15.20
2018-12-05T19:04:45.498Z,14.73
2018-12-05T19:07:13.129Z,15.00
2018-12-05T19:09:40.714Z,13.97
2018-12-05T19:12:08.302Z,13.43
2018-12-05T19:14:44.754Z,13.80
2018-12-05T19:17:12.342Z,13.63
2018-12-05T19:19:40.696Z,13.27
2018-12-05T19:22:08.983Z,14.00
2018-12-05T19:24:36.584Z,13.80
2018-12-05T19:27:04.489Z,17.60
2018-12-05T19:29:32.137Z,15.10
2018-12-05T19:31:59.718Z,14.13
2018-12-05T19:34:27.302Z,12.77
2018-12-05T19:36:54.968Z,13.73
2018-12-05T19:39:22.569Z,13.53
2018-12-05T19:41:50.153Z,12.90
2018-12-05T19:44:17.798Z,13.77
2018-12-05T19:46:45.382Z,14.13
2018-12-05T19:49:12.970Z,13.63
2018-12-05T19:51:40.642Z,12.70
2018-12-05T19:54:08.243Z,13.67
2018-12-05T19:56:35.845Z,14.43
2018-12-05T19:59:03.503Z,14.57
2018-12-05T20:01:31.088Z,18.30
2018-12-05T20:03:58.941Z,15.70
2018-12-05T20:06:26.583Z,15.23
2018-12-05T20:08:54.195Z,15.10
2018-12-05T20:11:21.774Z,15.53
2018-12-05T20:13:49.420Z,15.13
2018-12-05T20:16:17.035Z,15.10
2018-12-05T20:18:44.626Z,20.33
2018-12-05T20:21:12.270Z,21.05
2018-12-05T20:23:39.902Z,16.90
2018-12-05T20:26:07.481Z,17.00
2018-12-05T20:28:35.083Z,15.07
2018-12-05T20:31:02.680Z,14.77
2018-12-05T20:33:30.253Z,15.43
2018-12-05T20:35:57.899Z,15.67
2018-12-05T20:38:25.484Z,16.07
2018-12-05T20:40:53.068Z,16.13
2018-12-05T20:43:20.704Z,16.27
2018-12-05T20:45:48.590Z,16.73
2018-12-05T20:48:16.217Z,16.77
2018-12-05T20:50:43.886Z,16.00
2018-12-05T20:53:11.454Z,18.13
2018-12-05T20:55:39.036Z,15.80
2018-12-05T20:58:07.068Z,15.83
2018-12-05T21:00:35.424Z,15.87
2018-12-05T21:03:03.005Z,16.87
2018-12-05T21:05:31.403Z,16.00
2018-12-05T21:07:58.983Z,16.83
2018-12-05T21:10:26.577Z,16.27
2018-12-05T21:12:54.210Z,17.27
2018-12-05T21:15:21.822Z,21.80
2018-12-05T21:17:49.402Z,16.73
2018-12-05T21:20:17.804Z,16.57
2018-12-05T21:22:47.249Z,17.57
2018-12-05T21:25:13.002Z,15.87
2018-12-05T21:27:41.402Z,20.50
2018-12-05T21:30:09.064Z,14.93
2018-12-05T21:32:36.570Z,14.50
2018-12-05T21:35:04.233Z,15.07
2018-12-05T21:37:31.811Z,14.33
2018-12-05T21:39:59.404Z,18.75
2018-12-05T21:42:27.037Z,15.90
2018-12-05T21:44:54.632Z,14.20
2018-12-05T21:47:22.215Z,14.27
2018-12-05T21:49:49.843Z,14.00
2018-12-05T21:52:17.427Z,13.43
2018-12-05T21:54:45.010Z,12.83
2018-12-05T21:57:13.896Z,14.03
2018-12-05T21:59:41.484Z,14.30
2018-12-05T22:02:09.070Z,14.30
2018-12-05T22:04:37.472Z,14.33
2018-12-05T22:07:05.057Z,14.47
2018-12-05T22:09:32.644Z,14.70
2018-12-05T22:12:00.275Z,15.00
2018-12-05T22:14:27.867Z,19.60
2018-12-05T22:16:55.453Z,17.73
2018-12-05T22:19:23.096Z,15.87
2018-12-05T22:21:50.689Z,14.97
2018-12-05T22:24:19.049Z,15.43
2018-12-05T22:26:46.662Z,15.60
2018-12-05T22:29:14.247Z,21.50
2018-12-05T22:31:41.891Z,16.23
2018-12-05T22:34:09.476Z,15.17
2018-12-05T22:36:37.057Z,15.10
2018-12-05T22:39:04.713Z,14.40
2018-12-05T22:41:32.289Z,20.87
2018-12-05T22:43:59.872Z,21.53
2018-12-05T22:46:28.249Z,16.97
2018-12-05T22:48:55.838Z,16.50
2018-12-05T22:51:23.492Z,15.90
2018-12-05T22:53:51.095Z,15.67
2018-12-05T22:56:18.675Z,15.63
2018-12-05T22:58:46.317Z,16.13
2018-12-05T23:01:13.899Z,15.53
2018-12-05T23:03:41.481Z,15.10
2018-12-05T23:06:09.118Z,16.87
2018-12-05T23:08:36.704Z,16.73
2018-12-05T23:11:05.054Z,21.10
2018-12-05T23:13:32.681Z,17.43
2018-12-05T23:16:00.275Z,22.60
2018-12-05T23:18:27.857Z,17.63
2018-12-05T23:20:55.465Z,15.90
2018-12-05T23:23:23.057Z,15.83
2018-12-05T23:25:50.684Z,16.43
2018-12-05T23:28:18.263Z,21.17
2018-12-05T23:30:45.840Z,17.63
2018-12-05T23:33:13.454Z,18.07
2018-12-05T23:35:41.363Z,16.07
2018-12-05T23:38:08.991Z,15.67
2018-12-05T23:40:36.591Z,17.17
2018-12-05T23:43:04.180Z,16.70
2018-12-05T23:45:32.653Z,16.63
2018-12-05T23:48:00.250Z,16.97
2018-12-05T23:50:27.859Z,22.90
2018-12-05T23:52:55.489Z,18.57
2018-12-05T23:55:23.086Z,16.57
2018-12-05T23:57:50.683Z,18.00
